sensor_id;sensor_type;location;lat;lon;timestamp;P1;durP1;ratioP1;P2;durP2;ratioP2
20828;SDS011;10575;50.124;8.582;2022-09-01T00:01:33;5.15;;;2.15;;
20828;SDS011;10575;50.124;8.582;2022-09-01T00:04:02;4.75;;;2.20;;
20828;SDS011;10575;50.124;8.582;2022-09-01T00:06:29;4.90;;;2.15;;
20828;SDS011;10575;50.124;8.582;2022-09-01T00:08:58;5.32;;;1.98;;
20828;SDS011;10575;50.124;8.582;2022-09-01T00:11:29;2.60;;;1.83;;
20828;SDS011;10575;50.124;8.582;2022-09-01T00:13:55;2.58;;;1.90;;
20828;SDS011;10575;50.124;8.582;2022-09-01T00:16:21;2.17;;;1.95;;
20828;SDS011;10575;50.124;8.582;2022-09-01T00:18:49;3.10;;;2.30;;
20828;SDS011;10575;50.124;8.582;2022-09-01T00:21:18;3.80;;;2.08;;
20828;SDS011;10575;50.124;8.582;2022-09-01T00:23:55;5.50;;;2.67;;
20828;SDS011;10575;50.124;8.582;2022-09-01T00:26:21;2.95;;;2.10;;
20828;SDS011;10575;50.124;8.582;2022-09-01T00:28:47;2.25;;;2.05;;
20828;SDS011;10575;50.124;8.582;2022-09-01T00:31:12;3.05;;;2.08;;
20828;SDS011;10575;50.124;8.582;2022-09-01T00:33:42;2.20;;;2.00;;
20828;SDS011;10575;50.124;8.582;2022-09-01T00:36:08;3.13;;;2.15;;
20828;SDS011;10575;50.124;8.582;2022-09-01T00:38:34;3.25;;;2.20;;
20828;SDS011;10575;50.124;8.582;2022-09-01T00:41:00;9.40;;;2.22;;
20828;SDS011;10575;50.124;8.582;2022-09-01T00:43:40;3.28;;;2.10;;
20828;SDS011;10575;50.124;8.582;2022-09-01T00:46:15;4.45;;;1.90;;
20828;SDS011;10575;50.124;8.582;2022-09-01T00:48:44;4.47;;;2.10;;
20828;SDS011;10575;50.124;8.582;2022-09-01T00:51:12;4.13;;;2.10;;
20828;SDS011;10575;50.124;8.582;2022-09-01T00:53:38;4.10;;;2.13;;
20828;SDS011;10575;50.124;8.582;2022-09-01T00:56:07;6.72;;;2.47;;
20828;SDS011;10575;50.124;8.582;2022-09-01T00:58:33;2.38;;;2.10;;
20828;SDS011;10575;50.124;8.582;2022-09-01T01:01:01;5.72;;;2.35;;
20828;SDS011;10575;50.124;8.582;2022-09-01T01:03:27;5.32;;;2.20;;
20828;SDS011;10575;50.124;8.582;2022-09-01T01:05:54;2.95;;;2.05;;
20828;SDS011;10575;50.124;8.582;2022-09-01T01:08:29;5.30;;;2.35;;
20828;SDS011;10575;50.124;8.582;2022-09-01T01:10:58;4.43;;;2.20;;
20828;SDS011;10575;50.124;8.582;2022-09-01T01:13:28;2.88;;;1.90;;
20828;SDS011;10575;50.124;8.582;2022-09-01T01:15:56;3.33;;;2.20;;
20828;SDS011;10575;50.124;8.582;2022-09-01T01:18:23;2.35;;;2.15;;
20828;SDS011;10575;50.124;8.582;2022-09-01T01:21:02;6.68;;;2.45;;
20828;SDS011;10575;50.124;8.582;2022-09-01T01:23:56;4.18;;;2.03;;
20828;SDS011;10575;50.124;8.582;2022-09-01T01:26:31;2.90;;;2.35;;
20828;SDS011;10575;50.124;8.582;2022-09-01T01:28:56;3.40;;;2.50;;
20828;SDS011;10575;50.124;8.582;2022-09-01T01:31:22;4.57;;;2.33;;
20828;SDS011;10575;50.124;8.582;2022-09-01T01:33:55;5.28;;;2.33;;
20828;SDS011;10575;50.124;8.582;2022-09-01T01:36:28;5.10;;;2.30;;
20828;SDS011;10575;50.124;8.582;2022-09-01T01:38:56;2.42;;;2.08;;
20828;SDS011;10575;50.124;8.582;2022-09-01T01:41:27;3.22;;;2.15;;
20828;SDS011;10575;50.124;8.582;2022-09-01T01:43:56;5.47;;;2.75;;
20828;SDS011;10575;50.124;8.582;2022-09-01T01:46:23;2.60;;;2.13;;
20828;SDS011;10575;50.124;8.582;2022-09-01T01:48:50;6.53;;;2.30;;
20828;SDS011;10575;50.124;8.582;2022-09-01T01:51:17;5.10;;;2.30;;
20828;SDS011;10575;50.124;8.582;2022-09-01T01:53:45;6.43;;;2.55;;
20828;SDS011;10575;50.124;8.582;2022-09-01T01:56:12;6.47;;;2.20;;
20828;SDS011;10575;50.124;8.582;2022-09-01T01:58:38;3.13;;;2.30;;
20828;SDS011;10575;50.124;8.582;2022-09-01T02:01:04;6.28;;;2.22;;
20828;SDS011;10575;50.124;8.582;2022-09-01T02:03:34;5.65;;;2.28;;
20828;SDS011;10575;50.124;8.582;2022-09-01T02:06:00;5.15;;;2.20;;
20828;SDS011;10575;50.124;8.582;2022-09-01T02:08:28;6.45;;;2.47;;
20828;SDS011;10575;50.124;8.582;2022-09-01T02:10:54;6.20;;;2.33;;
20828;SDS011;10575;50.124;8.582;2022-09-01T02:13:22;5.22;;;2.30;;
20828;SDS011;10575;50.124;8.582;2022-09-01T02:15:55;7.30;;;2.42;;
20828;SDS011;10575;50.124;8.582;2022-09-01T02:18:28;4.88;;;2.15;;
20828;SDS011;10575;50.124;8.582;2022-09-01T02:21:00;3.30;;;2.72;;
20828;SDS011;10575;50.124;8.582;2022-09-01T02:23:34;4.13;;;2.25;;
20828;SDS011;10575;50.124;8.582;2022-09-01T02:26:01;2.97;;;2.20;;
20828;SDS011;10575;50.124;8.582;2022-09-01T02:28:30;5.38;;;2.47;;
20828;SDS011;10575;50.124;8.582;2022-09-01T02:30:59;3.90;;;2.55;;
20828;SDS011;10575;50.124;8.582;2022-09-01T02:33:26;3.80;;;2.40;;
20828;SDS011;10575;50.124;8.582;2022-09-01T02:35:55;2.95;;;2.38;;
20828;SDS011;10575;50.124;8.582;2022-09-01T02:38:25;4.05;;;2.28;;
20828;SDS011;10575;50.124;8.582;2022-09-01T02:40:54;3.22;;;2.47;;
20828;SDS011;10575;50.124;8.582;2022-09-01T02:43:22;4.45;;;2.10;;
20828;SDS011;10575;50.124;8.582;2022-09-01T02:45:51;2.38;;;2.10;;
20828;SDS011;10575;50.124;8.582;2022-09-01T02:48:18;4.13;;;2.20;;
20828;SDS011;10575;50.124;8.582;2022-09-01T02:50:47;5.30;;;2.30;;
20828;SDS011;10575;50.124;8.582;2022-09-01T02:53:13;6.82;;;2.60;;
20828;SDS011;10575;50.124;8.582;2022-09-01T02:55:39;2.60;;;2.30;;
20828;SDS011;10575;50.124;8.582;2022-09-01T02:58:06;5.72;;;2.42;;
20828;SDS011;10575;50.124;8.582;2022-09-01T03:00:35;4.88;;;2.35;;
20828;SDS011;10575;50.124;8.582;2022-09-01T03:03:04;2.85;;;2.13;;
20828;SDS011;10575;50.124;8.582;2022-09-01T03:05:31;6.32;;;2.90;;
20828;SDS011;10575;50.124;8.582;2022-09-01T03:07:59;3.70;;;2.40;;
20828;SDS011;10575;50.124;8.582;2022-09-01T03:10:37;3.35;;;3.00;;
20828;SDS011;10575;50.124;8.582;2022-09-01T03:13:06;4.63;;;3.13;;
20828;SDS011;10575;50.124;8.582;2022-09-01T03:15:34;5.35;;;2.90;;
20828;SDS011;10575;50.124;8.582;2022-09-01T03:18:02;2.90;;;2.58;;
20828;SDS011;10575;50.124;8.582;2022-09-01T03:20:29;5.40;;;2.83;;
20828;SDS011;10575;50.124;8.582;2022-09-01T03:23:00;5.30;;;2.75;;
20828;SDS011;10575;50.124;8.582;2022-09-01T03:25:26;4.18;;;2.97;;
20828;SDS011;10575;50.124;8.582;2022-09-01T03:27:53;4.45;;;2.90;;
20828;SDS011;10575;50.124;8.582;2022-09-01T03:30:26;3.55;;;2.70;;
20828;SDS011;10575;50.124;8.582;2022-09-01T03:32:54;3.42;;;3.00;;
20828;SDS011;10575;50.124;8.582;2022-09-01T03:35:20;3.65;;;2.92;;
20828;SDS011;10575;50.124;8.582;2022-09-01T03:37:46;3.30;;;2.80;;
20828;SDS011;10575;50.124;8.582;2022-09-01T03:40:12;3.78;;;3.00;;
20828;SDS011;10575;50.124;8.582;2022-09-01T03:42:39;3.58;;;2.90;;
20828;SDS011;10575;50.124;8.582;2022-09-01T03:45:07;2.88;;;2.58;;
20828;SDS011;10575;50.124;8.582;2022-09-01T03:47:37;7.03;;;3.45;;
20828;SDS011;10575;50.124;8.582;2022-09-01T03:50:05;3.38;;;2.85;;
20828;SDS011;10575;50.124;8.582;2022-09-01T03:52:53;3.78;;;2.47;;
20828;SDS011;10575;50.124;8.582;2022-09-01T03:55:25;4.28;;;2.97;;
20828;SDS011;10575;50.124;8.582;2022-09-01T03:57:53;3.92;;;2.95;;
20828;SDS011;10575;50.124;8.582;2022-09-01T04:00:22;3.33;;;2.92;;
20828;SDS011;10575;50.124;8.582;2022-09-01T04:02:54;3.28;;;2.88;;
20828;SDS011;10575;50.124;8.582;2022-09-01T04:05:23;3.72;;;2.90;;
20828;SDS011;10575;50.124;8.582;2022-09-01T04:07:53;3.35;;;3.05;;
20828;SDS011;10575;50.124;8.582;2022-09-01T04:10:21;4.22;;;2.97;;
20828;SDS011;10575;50.124;8.582;2022-09-01T04:12:48;7.65;;;3.00;;
20828;SDS011;10575;50.124;8.582;2022-09-01T04:15:14;5.18;;;3.38;;
20828;SDS011;10575;50.124;8.582;2022-09-01T04:17:42;7.13;;;3.30;;
20828;SDS011;10575;50.124;8.582;2022-09-01T04:20:33;4.03;;;3.30;;
20828;SDS011;10575;50.124;8.582;2022-09-01T04:23:13;3.97;;;3.35;;
20828;SDS011;10575;50.124;8.582;2022-09-01T04:25:48;3.50;;;3.00;;
20828;SDS011;10575;50.124;8.582;2022-09-01T04:28:18;6.00;;;3.33;;
20828;SDS011;10575;50.124;8.582;2022-09-01T04:30:53;5.32;;;3.53;;
20828;SDS011;10575;50.124;8.582;2022-09-01T04:33:21;3.63;;;2.95;;
20828;SDS011;10575;50.124;8.582;2022-09-01T04:35:48;3.92;;;3.10;;
20828;SDS011;10575;50.124;8.582;2022-09-01T04:38:20;6.13;;;3.20;;
20828;SDS011;10575;50.124;8.582;2022-09-01T04:40:49;3.83;;;3.42;;
20828;SDS011;10575;50.124;8.582;2022-09-01T04:43:16;5.95;;;3.17;;
20828;SDS011;10575;50.124;8.582;2022-09-01T04:45:42;5.05;;;2.97;;
20828;SDS011;10575;50.124;8.582;2022-09-01T04:48:09;3.17;;;2.88;;
20828;SDS011;10575;50.124;8.582;2022-09-01T04:50:35;6.68;;;3.33;;
20828;SDS011;10575;50.124;8.582;2022-09-01T04:53:02;6.90;;;3.15;;
20828;SDS011;10575;50.124;8.582;2022-09-01T04:55:30;7.20;;;2.80;;
20828;SDS011;10575;50.124;8.582;2022-09-01T04:57:57;4.63;;;3.60;;
20828;SDS011;10575;50.124;8.582;2022-09-01T05:00:25;3.80;;;3.15;;
20828;SDS011;10575;50.124;8.582;2022-09-01T05:02:55;4.88;;;3.25;;
20828;SDS011;10575;50.124;8.582;2022-09-01T05:05:28;8.23;;;4.20;;
20828;SDS011;10575;50.124;8.582;2022-09-01T05:08:03;5.13;;;3.70;;
20828;SDS011;10575;50.124;8.582;2022-09-01T05:10:37;4.78;;;3.40;;
20828;SDS011;10575;50.124;8.582;2022-09-01T05:13:06;3.80;;;3.13;;
20828;SDS011;10575;50.124;8.582;2022-09-01T05:15:34;4.75;;;2.80;;
20828;SDS011;10575;50.124;8.582;2022-09-01T05:18:01;3.80;;;3.10;;
20828;SDS011;10575;50.124;8.582;2022-09-01T05:20:35;5.65;;;2.72;;
20828;SDS011;10575;50.124;8.582;2022-09-01T05:23:02;3.97;;;2.85;;
20828;SDS011;10575;50.124;8.582;2022-09-01T05:25:29;4.03;;;3.10;;
20828;SDS011;10575;50.124;8.582;2022-09-01T05:27:54;4.10;;;3.22;;
20828;SDS011;10575;50.124;8.582;2022-09-01T05:30:21;3.65;;;2.90;;
20828;SDS011;10575;50.124;8.582;2022-09-01T05:32:47;4.57;;;3.40;;
20828;SDS011;10575;50.124;8.582;2022-09-01T05:35:13;5.15;;;2.83;;
20828;SDS011;10575;50.124;8.582;2022-09-01T05:37:38;2.92;;;2.72;;
20828;SDS011;10575;50.124;8.582;2022-09-01T05:40:07;4.25;;;2.95;;
20828;SDS011;10575;50.124;8.582;2022-09-01T05:42:39;5.05;;;3.28;;
20828;SDS011;10575;50.124;8.582;2022-09-01T05:45:06;4.32;;;2.60;;
20828;SDS011;10575;50.124;8.582;2022-09-01T05:47:35;2.88;;;2.67;;
20828;SDS011;10575;50.124;8.582;2022-09-01T05:50:03;5.80;;;2.72;;
20828;SDS011;10575;50.124;8.582;2022-09-01T05:52:31;3.38;;;2.55;;
20828;SDS011;10575;50.124;8.582;2022-09-01T05:54:58;5.05;;;2.72;;
20828;SDS011;10575;50.124;8.582;2022-09-01T05:57:24;5.18;;;3.17;;
20828;SDS011;10575;50.124;8.582;2022-09-01T05:59:50;6.18;;;2.90;;
20828;SDS011;10575;50.124;8.582;2022-09-01T06:02:18;4.90;;;2.70;;
20828;SDS011;10575;50.124;8.582;2022-09-01T06:04:45;7.10;;;2.72;;
20828;SDS011;10575;50.124;8.582;2022-09-01T06:07:12;6.60;;;2.63;;
20828;SDS011;10575;50.124;8.582;2022-09-01T06:09:39;3.78;;;2.80;;
20828;SDS011;10575;50.124;8.582;2022-09-01T06:12:07;6.03;;;2.25;;
20828;SDS011;10575;50.124;8.582;2022-09-01T06:14:41;5.28;;;2.83;;
20828;SDS011;10575;50.124;8.582;2022-09-01T06:17:09;3.45;;;2.35;;
20828;SDS011;10575;50.124;8.582;2022-09-01T06:19:36;5.07;;;2.40;;
20828;SDS011;10575;50.124;8.582;2022-09-01T06:22:03;6.47;;;2.60;;
20828;SDS011;10575;50.124;8.582;2022-09-01T06:24:29;4.97;;;2.38;;
20828;SDS011;10575;50.124;8.582;2022-09-01T06:26:55;5.63;;;2.60;;
20828;SDS011;10575;50.124;8.582;2022-09-01T06:29:21;3.53;;;2.95;;
20828;SDS011;10575;50.124;8.582;2022-09-01T06:31:46;2.50;;;1.90;;
20828;SDS011;10575;50.124;8.582;2022-09-01T06:34:16;2.60;;;2.20;;
20828;SDS011;10575;50.124;8.582;2022-09-01T06:36:43;6.47;;;2.67;;
20828;SDS011;10575;50.124;8.582;2022-09-01T06:39:11;2.47;;;2.20;;
20828;SDS011;10575;50.124;8.582;2022-09-01T06:41:44;5.38;;;2.28;;
20828;SDS011;10575;50.124;8.582;2022-09-01T06:44:13;6.07;;;2.33;;
20828;SDS011;10575;50.124;8.582;2022-09-01T06:46:39;2.88;;;1.73;;
20828;SDS011;10575;50.124;8.582;2022-09-01T06:49:05;5.60;;;2.13;;
20828;SDS011;10575;50.124;8.582;2022-09-01T06:51:35;2.45;;;1.70;;
20828;SDS011;10575;50.124;8.582;2022-09-01T06:54:01;4.32;;;2.00;;
20828;SDS011;10575;50.124;8.582;2022-09-01T06:56:27;6.50;;;2.33;;
20828;SDS011;10575;50.124;8.582;2022-09-01T06:58:56;12.05;;;1.95;;
20828;SDS011;10575;50.124;8.582;2022-09-01T07:01:23;5.80;;;1.83;;
20828;SDS011;10575;50.124;8.582;2022-09-01T07:03:53;3.85;;;1.75;;
20828;SDS011;10575;50.124;8.582;2022-09-01T07:06:20;8.40;;;1.85;;
20828;SDS011;10575;50.124;8.582;2022-09-01T07:08:51;3.85;;;1.77;;
20828;SDS011;10575;50.124;8.582;2022-09-01T07:11:21;2.45;;;1.70;;
20828;SDS011;10575;50.124;8.582;2022-09-01T07:13:49;3.65;;;1.60;;
20828;SDS011;10575;50.124;8.582;2022-09-01T07:16:19;1.70;;;1.60;;
20828;SDS011;10575;50.124;8.582;2022-09-01T07:18:49;7.55;;;2.95;;
20828;SDS011;10575;50.124;8.582;2022-09-01T07:21:16;3.58;;;2.38;;
20828;SDS011;10575;50.124;8.582;2022-09-01T07:23:42;3.88;;;1.92;;
20828;SDS011;10575;50.124;8.582;2022-09-01T07:26:08;2.60;;;1.70;;
20828;SDS011;10575;50.124;8.582;2022-09-01T07:28:34;4.43;;;2.30;;
20828;SDS011;10575;50.124;8.582;2022-09-01T07:31:00;4.72;;;2.10;;
20828;SDS011;10575;50.124;8.582;2022-09-01T07:33:28;2.33;;;1.63;;
20828;SDS011;10575;50.124;8.582;2022-09-01T07:35:55;3.72;;;2.08;;
20828;SDS011;10575;50.124;8.582;2022-09-01T07:38:22;3.10;;;1.80;;
20828;SDS011;10575;50.124;8.582;2022-09-01T07:40:49;1.88;;;1.63;;
20828;SDS011;10575;50.124;8.582;2022-09-01T07:43:18;3.20;;;1.60;;
20828;SDS011;10575;50.124;8.582;2022-09-01T07:45:48;6.32;;;1.77;;
20828;SDS011;10575;50.124;8.582;2022-09-01T07:48:23;3.35;;;1.50;;
20828;SDS011;10575;50.124;8.582;2022-09-01T07:50:52;3.25;;;1.55;;
20828;SDS011;10575;50.124;8.582;2022-09-01T07:53:22;5.85;;;1.65;;
20828;SDS011;10575;50.124;8.582;2022-09-01T07:55:53;3.13;;;1.70;;
20828;SDS011;10575;50.124;8.582;2022-09-01T07:58:21;4.63;;;1.50;;
20828;SDS011;10575;50.124;8.582;2022-09-01T08:00:48;1.88;;;1.30;;
20828;SDS011;10575;50.124;8.582;2022-09-01T08:03:16;1.70;;;1.20;;
20828;SDS011;10575;50.124;8.582;2022-09-01T08:05:42;3.90;;;1.80;;
20828;SDS011;10575;50.124;8.582;2022-09-01T08:08:09;2.85;;;1.60;;
20828;SDS011;10575;50.124;8.582;2022-09-01T08:10:38;2.70;;;1.60;;
20828;SDS011;10575;50.124;8.582;2022-09-01T08:13:05;2.63;;;1.73;;
20828;SDS011;10575;50.124;8.582;2022-09-01T08:15:33;1.50;;;1.30;;
20828;SDS011;10575;50.124;8.582;2022-09-01T08:18:01;2.10;;;1.77;;
20828;SDS011;10575;50.124;8.582;2022-09-01T08:20:27;3.03;;;1.70;;
20828;SDS011;10575;50.124;8.582;2022-09-01T08:22:54;2.95;;;1.48;;
20828;SDS011;10575;50.124;8.582;2022-09-01T08:25:19;3.40;;;1.60;;
20828;SDS011;10575;50.124;8.582;2022-09-01T08:27:45;4.57;;;1.75;;
20828;SDS011;10575;50.124;8.582;2022-09-01T08:30:11;3.08;;;1.75;;
20828;SDS011;10575;50.124;8.582;2022-09-01T08:32:37;2.28;;;1.80;;
20828;SDS011;10575;50.124;8.582;2022-09-01T08:35:06;4.38;;;1.75;;
20828;SDS011;10575;50.124;8.582;2022-09-01T08:37:33;2.53;;;1.75;;
20828;SDS011;10575;50.124;8.582;2022-09-01T08:39:58;4.25;;;1.70;;
20828;SDS011;10575;50.124;8.582;2022-09-01T08:42:34;1.75;;;1.50;;
20828;SDS011;10575;50.124;8.582;2022-09-01T08:47:45;5.13;;;1.40;;
20828;SDS011;10575;50.124;8.582;2022-09-01T08:50:11;3.10;;;1.50;;
20828;SDS011;10575;50.124;8.582;2022-09-01T08:52:37;4.82;;;1.70;;
20828;SDS011;10575;50.124;8.582;2022-09-01T08:57:52;2.67;;;1.23;;
20828;SDS011;10575;50.124;8.582;2022-09-01T09:00:23;1.85;;;1.20;;
20828;SDS011;10575;50.124;8.582;2022-09-01T09:16:39;1.58;;;1.45;;
20828;SDS011;10575;50.124;8.582;2022-09-01T09:19:14;2.88;;;1.77;;
20828;SDS011;10575;50.124;8.582;2022-09-01T09:21:54;5.63;;;1.90;;
20828;SDS011;10575;50.124;8.582;2022-09-01T09:24:26;4.13;;;1.60;;
20828;SDS011;10575;50.124;8.582;2022-09-01T09:27:15;1.90;;;1.52;;
20828;SDS011;10575;50.124;8.582;2022-09-01T09:29:52;3.72;;;1.60;;
20828;SDS011;10575;50.124;8.582;2022-09-01T09:32:19;3.67;;;1.77;;
20828;SDS011;10575;50.124;8.582;2022-09-01T09:34:46;4.25;;;1.88;;
20828;SDS011;10575;50.124;8.582;2022-09-01T09:40:01;4.72;;;1.90;;
20828;SDS011;10575;50.124;8.582;2022-09-01T09:42:34;9.27;;;2.20;;
20828;SDS011;10575;50.124;8.582;2022-09-01T09:45:04;2.15;;;1.55;;
20828;SDS011;10575;50.124;8.582;2022-09-01T09:47:51;2.28;;;1.92;;
20828;SDS011;10575;50.124;8.582;2022-09-01T09:50:19;2.85;;;1.67;;
20828;SDS011;10575;50.124;8.582;2022-09-01T09:52:49;2.25;;;1.70;;
20828;SDS011;10575;50.124;8.582;2022-09-01T09:57:52;8.30;;;2.05;;
20828;SDS011;10575;50.124;8.582;2022-09-01T10:00:28;3.28;;;2.00;;
20828;SDS011;10575;50.124;8.582;2022-09-01T10:02:57;3.95;;;1.70;;
20828;SDS011;10575;50.124;8.582;2022-09-01T10:05:33;3.17;;;1.70;;
20828;SDS011;10575;50.124;8.582;2022-09-01T10:08:06;3.05;;;1.88;;
20828;SDS011;10575;50.124;8.582;2022-09-01T10:10:41;2.95;;;1.90;;
20828;SDS011;10575;50.124;8.582;2022-09-01T10:13:12;1.63;;;1.52;;
20828;SDS011;10575;50.124;8.582;2022-09-01T10:15:40;2.55;;;1.98;;
20828;SDS011;10575;50.124;8.582;2022-09-01T10:18:14;2.22;;;1.75;;
20828;SDS011;10575;50.124;8.582;2022-09-01T10:21:07;3.80;;;1.80;;
20828;SDS011;10575;50.124;8.582;2022-09-01T10:23:33;6.18;;;2.00;;
20828;SDS011;10575;50.124;8.582;2022-09-01T10:26:02;6.38;;;2.10;;
20828;SDS011;10575;50.124;8.582;2022-09-01T10:28:36;4.72;;;1.95;;
20828;SDS011;10575;50.124;8.582;2022-09-01T10:31:09;5.70;;;2.55;;
20828;SDS011;10575;50.124;8.582;2022-09-01T10:33:35;2.10;;;1.70;;
20828;SDS011;10575;50.124;8.582;2022-09-01T10:36:00;3.72;;;1.83;;
20828;SDS011;10575;50.124;8.582;2022-09-01T10:38:27;4.25;;;2.00;;
20828;SDS011;10575;50.124;8.582;2022-09-01T10:40:55;2.97;;;1.95;;
20828;SDS011;10575;50.124;8.582;2022-09-01T10:43:47;4.15;;;2.08;;
20828;SDS011;10575;50.124;8.582;2022-09-01T10:46:40;3.33;;;2.00;;
20828;SDS011;10575;50.124;8.582;2022-09-01T10:49:02;4.35;;;2.10;;
20828;SDS011;10575;50.124;8.582;2022-09-01T10:52:06;3.92;;;1.80;;
20828;SDS011;10575;50.124;8.582;2022-09-01T10:57:10;6.00;;;2.13;;
20828;SDS011;10575;50.124;8.582;2022-09-01T11:10:52;2.78;;;1.70;;
20828;SDS011;10575;50.124;8.582;2022-09-01T11:19:17;2.72;;;2.25;;
20828;SDS011;10575;50.124;8.582;2022-09-01T11:22:10;3.25;;;2.08;;
20828;SDS011;10575;50.124;8.582;2022-09-01T11:24:49;5.50;;;1.98;;
20828;SDS011;10575;50.124;8.582;2022-09-01T11:27:54;1.60;;;1.50;;
20828;SDS011;10575;50.124;8.582;2022-09-01T11:30:24;4.00;;;1.88;;
20828;SDS011;10575;50.124;8.582;2022-09-01T11:38:47;2.75;;;1.98;;
20828;SDS011;10575;50.124;8.582;2022-09-01T11:42:03;2.78;;;1.90;;
20828;SDS011;10575;50.124;8.582;2022-09-01T11:47:10;2.53;;;1.98;;
20828;SDS011;10575;50.124;8.582;2022-09-01T11:49:59;4.38;;;2.00;;
20828;SDS011;10575;50.124;8.582;2022-09-01T11:52:27;3.78;;;1.75;;
20828;SDS011;10575;50.124;8.582;2022-09-01T11:54:55;2.05;;;1.80;;
20828;SDS011;10575;50.124;8.582;2022-09-01T11:57:24;2.50;;;1.90;;
20828;SDS011;10575;50.124;8.582;2022-09-01T11:59:58;3.30;;;1.60;;
20828;SDS011;10575;50.124;8.582;2022-09-01T12:02:41;4.95;;;1.80;;
20828;SDS011;10575;50.124;8.582;2022-09-01T12:05:26;2.05;;;1.60;;
20828;SDS011;10575;50.124;8.582;2022-09-01T12:07:54;2.90;;;2.08;;
20828;SDS011;10575;50.124;8.582;2022-09-01T12:13:11;2.58;;;2.08;;
20828;SDS011;10575;50.124;8.582;2022-09-01T12:15:43;2.92;;;2.10;;
20828;SDS011;10575;50.124;8.582;2022-09-01T12:18:22;3.22;;;1.80;;
20828;SDS011;10575;50.124;8.582;2022-09-01T12:20:51;3.28;;;2.38;;
20828;SDS011;10575;50.124;8.582;2022-09-01T12:23:30;4.38;;;2.17;;
20828;SDS011;10575;50.124;8.582;2022-09-01T12:26:31;3.08;;;2.17;;
20828;SDS011;10575;50.124;8.582;2022-09-01T12:28:51;4.75;;;2.58;;
20828;SDS011;10575;50.124;8.582;2022-09-01T12:31:24;3.28;;;2.15;;
20828;SDS011;10575;50.124;8.582;2022-09-01T12:33:51;3.83;;;2.50;;
20828;SDS011;10575;50.124;8.582;2022-09-01T12:38:52;4.38;;;2.63;;
20828;SDS011;10575;50.124;8.582;2022-09-01T12:41:41;3.60;;;3.13;;
20828;SDS011;10575;50.124;8.582;2022-09-01T12:44:27;2.47;;;2.28;;
20828;SDS011;10575;50.124;8.582;2022-09-01T12:47:08;2.55;;;2.22;;
20828;SDS011;10575;50.124;8.582;2022-09-01T12:49:44;3.95;;;2.28;;
20828;SDS011;10575;50.124;8.582;2022-09-01T12:52:19;2.20;;;2.00;;
20828;SDS011;10575;50.124;8.582;2022-09-01T12:54:50;3.20;;;2.55;;
20828;SDS011;10575;50.124;8.582;2022-09-01T12:57:29;4.50;;;2.10;;
20828;SDS011;10575;50.124;8.582;2022-09-01T13:05:32;2.67;;;2.15;;
20828;SDS011;10575;50.124;8.582;2022-09-01T13:08:08;3.03;;;1.98;;
20828;SDS011;10575;50.124;8.582;2022-09-01T13:10:46;4.43;;;2.33;;
20828;SDS011;10575;50.124;8.582;2022-09-01T13:13:17;3.28;;;1.85;;
20828;SDS011;10575;50.124;8.582;2022-09-01T13:15:45;4.05;;;2.08;;
20828;SDS011;10575;50.124;8.582;2022-09-01T13:18:14;2.50;;;2.17;;
20828;SDS011;10575;50.124;8.582;2022-09-01T13:20:40;1.92;;;1.73;;
20828;SDS011;10575;50.124;8.582;2022-09-01T13:23:06;4.30;;;1.95;;
20828;SDS011;10575;50.124;8.582;2022-09-01T13:25:32;2.25;;;2.00;;
20828;SDS011;10575;50.124;8.582;2022-09-01T13:27:59;3.92;;;2.10;;
20828;SDS011;10575;50.124;8.582;2022-09-01T13:30:27;2.97;;;2.15;;
20828;SDS011;10575;50.124;8.582;2022-09-01T13:32:54;2.88;;;1.92;;
20828;SDS011;10575;50.124;8.582;2022-09-01T13:35:21;3.30;;;1.98;;
20828;SDS011;10575;50.124;8.582;2022-09-01T13:37:47;3.05;;;2.15;;
20828;SDS011;10575;50.124;8.582;2022-09-01T13:40:14;3.45;;;2.17;;
20828;SDS011;10575;50.124;8.582;2022-09-01T13:42:41;2.95;;;2.25;;
20828;SDS011;10575;50.124;8.582;2022-09-01T13:45:12;3.53;;;2.00;;
20828;SDS011;10575;50.124;8.582;2022-09-01T13:47:38;2.30;;;2.00;;
20828;SDS011;10575;50.124;8.582;2022-09-01T13:50:05;2.53;;;1.70;;
20828;SDS011;10575;50.124;8.582;2022-09-01T13:52:32;2.30;;;2.10;;
20828;SDS011;10575;50.124;8.582;2022-09-01T13:54:57;2.13;;;1.92;;
20828;SDS011;10575;50.124;8.582;2022-09-01T13:57:23;4.47;;;2.15;;
20828;SDS011;10575;50.124;8.582;2022-09-01T13:59:49;2.22;;;2.00;;
20828;SDS011;10575;50.124;8.582;2022-09-01T14:02:14;2.13;;;1.95;;
20828;SDS011;10575;50.124;8.582;2022-09-01T14:04:40;2.75;;;2.22;;
20828;SDS011;10575;50.124;8.582;2022-09-01T14:07:06;3.00;;;2.30;;
20828;SDS011;10575;50.124;8.582;2022-09-01T14:09:31;4.93;;;3.35;;
20828;SDS011;10575;50.124;8.582;2022-09-01T14:11:57;4.00;;;2.20;;
20828;SDS011;10575;50.124;8.582;2022-09-01T14:14:23;2.08;;;1.88;;
20828;SDS011;10575;50.124;8.582;2022-09-01T14:16:49;2.15;;;1.90;;
20828;SDS011;10575;50.124;8.582;2022-09-01T14:19:15;3.72;;;2.40;;
20828;SDS011;10575;50.124;8.582;2022-09-01T14:21:40;2.05;;;1.95;;
20828;SDS011;10575;50.124;8.582;2022-09-01T14:24:06;2.05;;;1.88;;
20828;SDS011;10575;50.124;8.582;2022-09-01T14:26:32;4.18;;;2.05;;
20828;SDS011;10575;50.124;8.582;2022-09-01T14:28:58;2.90;;;2.33;;
20828;SDS011;10575;50.124;8.582;2022-09-01T14:31:25;1.90;;;1.70;;
20828;SDS011;10575;50.124;8.582;2022-09-01T14:33:51;3.55;;;2.13;;
20828;SDS011;10575;50.124;8.582;2022-09-01T14:36:18;3.67;;;1.83;;
20828;SDS011;10575;50.124;8.582;2022-09-01T14:38:45;2.92;;;1.80;;
20828;SDS011;10575;50.124;8.582;2022-09-01T14:41:12;4.20;;;2.45;;
20828;SDS011;10575;50.124;8.582;2022-09-01T14:43:39;2.95;;;2.38;;
20828;SDS011;10575;50.124;8.582;2022-09-01T14:46:07;2.58;;;2.25;;
20828;SDS011;10575;50.124;8.582;2022-09-01T14:48:35;3.72;;;1.95;;
20828;SDS011;10575;50.124;8.582;2022-09-01T14:51:02;3.15;;;2.03;;
20828;SDS011;10575;50.124;8.582;2022-09-01T14:53:28;2.03;;;1.85;;
20828;SDS011;10575;50.124;8.582;2022-09-01T14:55:55;2.28;;;1.70;;
20828;SDS011;10575;50.124;8.582;2022-09-01T14:58:22;1.90;;;1.75;;
20828;SDS011;10575;50.124;8.582;2022-09-01T15:00:49;3.00;;;1.90;;
20828;SDS011;10575;50.124;8.582;2022-09-01T15:03:14;2.33;;;1.95;;
20828;SDS011;10575;50.124;8.582;2022-09-01T15:05:40;2.30;;;2.10;;
20828;SDS011;10575;50.124;8.582;2022-09-01T15:08:06;2.67;;;2.10;;
20828;SDS011;10575;50.124;8.582;2022-09-01T15:10:33;2.75;;;2.08;;
20828;SDS011;10575;50.124;8.582;2022-09-01T15:12:59;2.75;;;2.13;;
20828;SDS011;10575;50.124;8.582;2022-09-01T15:15:25;4.28;;;1.95;;
20828;SDS011;10575;50.124;8.582;2022-09-01T15:17:53;5.07;;;2.28;;
20828;SDS011;10575;50.124;8.582;2022-09-01T15:20:19;4.30;;;1.90;;
20828;SDS011;10575;50.124;8.582;2022-09-01T15:23:04;3.15;;;1.95;;
20828;SDS011;10575;50.124;8.582;2022-09-01T15:25:30;2.13;;;1.67;;
20828;SDS011;10575;50.124;8.582;2022-09-01T15:27:55;2.22;;;2.03;;
20828;SDS011;10575;50.124;8.582;2022-09-01T15:30:21;2.78;;;2.00;;
20828;SDS011;10575;50.124;8.582;2022-09-01T15:32:48;2.45;;;1.95;;
20828;SDS011;10575;50.124;8.582;2022-09-01T15:35:16;8.32;;;2.97;;
20828;SDS011;10575;50.124;8.582;2022-09-01T15:37:44;3.70;;;1.95;;
20828;SDS011;10575;50.124;8.582;2022-09-01T15:40:11;2.10;;;1.90;;
20828;SDS011;10575;50.124;8.582;2022-09-01T15:42:37;2.28;;;2.08;;
20828;SDS011;10575;50.124;8.582;2022-09-01T15:45:04;3.60;;;2.10;;
20828;SDS011;10575;50.124;8.582;2022-09-01T15:47:36;3.17;;;1.90;;
20828;SDS011;10575;50.124;8.582;2022-09-01T15:50:06;3.13;;;1.95;;
20828;SDS011;10575;50.124;8.582;2022-09-01T15:52:34;2.42;;;1.70;;
20828;SDS011;10575;50.124;8.582;2022-09-01T15:55:14;2.60;;;2.08;;
20828;SDS011;10575;50.124;8.582;2022-09-01T15:57:40;3.90;;;1.88;;
20828;SDS011;10575;50.124;8.582;2022-09-01T16:00:06;1.77;;;1.67;;
20828;SDS011;10575;50.124;8.582;2022-09-01T16:02:32;3.00;;;1.73;;
20828;SDS011;10575;50.124;8.582;2022-09-01T16:04:58;3.75;;;1.80;;
20828;SDS011;10575;50.124;8.582;2022-09-01T16:07:23;2.15;;;1.73;;